Hopatcong, New Jersey
Current Conditions -  °F | °C
As of 12:45 PM on Thursday 27 Nov 2014 (Local Time) from KMMU Reporting Station
Overcast Overcast  
Wind Chill: 32°   Ceiling: 1200
Heat Index: 37°   Visibility: 10mi
Dew Point: 30°   Wind: 7mph
Humidity: 75%   Direction: 360°N
Pressure: 29.99"   Gusts: NA
Location:  40.94°N, 74.66°W
Report Text: KMMU 271745Z 36006KT 10SM OVC012 03/M01 A2999
Loading
Personal Weather Stations






























Interactive Weather Map New forecast layout! Learn more

10-Day Weather Forecast

Advertisements
Track Severe Weather on mobile